Portada
METAR-TAF:

METAR-TAF

Aeropuertos :

Aeropuerto de Copenhague-Kastrup

Copenhague, Dinamarca

latitud: 55-37N, longitud: 012-39E, altitud: 5 m

Observación

El informe se hizo hace 10 horas y 29 minutos, a las 05:20 UTC
Viento 7 kt del oeste
Temperatura 14°C
Humedad 88%
Presión 1019 hPa
Visibilidad 10 km o más
sin nubes por debajo de 1500 m y sin presencia de cumulonimbus.

METAR: EKCH 210520Z 28007KT CAVOK 14/12 Q1019 NOSIG

Hora: 17:49 (15:49 UTC)

Pronóstico

El informe se hizo hace 10 horas y 56 minutos, a las 04:53 UTC
Pronóstico válido del 21 a las 06 UTC al 22 a las 06 UTC
Viento 8 kt del oeste
Visibilidad 10 km o más
Nubes dispersas a una altura de 3000 ft

TAF: EKCH 210453Z 2106/2206 28008KT 9999 SCT030

Observaciones y pronósticos meteorológicos de más de 4000 aeropuertos (mensajes METAR y TAF).

Los puntos amarillos y rojos representan las estaciones disponibles.

Ponga el ratón en el punto deseado para ver el nombre de la estación.

Haga clic para ver las observaciones y los pronósticos meteorológicos.

Para cambiar el mapa : haga clic en los botones verdes con una cruz de color negro para hacer un zoom, en el botón verde con un guión para alejar o en las flechas verdes para mapas adyacentes.


METAR-TAF: